Time;durP1;ratioP1;P1;durP2;ratioP2;P2;SDS_P1;SDS_P2;PMS_P1;PMS_P2;Temp;Humidity;BMP_temperature;BMP_pressure;BME280_temperature;BME280_humidity;BME280_pressure;Samples;Min_cycle;Max_cycle;Signal;HPM_P1;HPM_P2
2023/10/31 00:02:06;;;;;;;;;40.67;33.67;;;;;11.60;100.00;98726.91;6312988;20;3615914;-46
2023/10/31 00:04:35;;;;;;;;;40.00;33.67;;;;;11.54;100.00;98717.50;6278678;20;3620104;-46
2023/10/31 00:07:04;;;;;;;;;35.67;30.00;;;;;12.19;100.00;98723.88;6309430;20;3620168;-46
2023/10/31 00:09:34;;;;;;;;;41.33;34.67;;;;;11.84;100.00;98716.81;6279724;20;2860903;-46
2023/10/31 00:12:03;;;;;;;;;36.00;32.00;;;;;11.31;100.00;98713.97;6315774;20;3605545;-46
2023/10/31 00:14:32;;;;;;;;;36.00;33.33;;;;;11.27;100.00;98706.28;6279217;20;3600257;-46
2023/10/31 00:17:01;;;;;;;;;36.33;33.00;;;;;10.94;100.00;98699.94;6310898;20;3603407;-46
2023/10/31 00:19:30;;;;;;;;;40.00;34.00;;;;;11.22;100.00;98698.63;6280367;20;2848192;-46
2023/10/31 00:22:00;;;;;;;;;46.00;36.00;;;;;11.42;100.00;98688.94;6280155;20;3619092;-46
2023/10/31 00:24:31;;;;;;;;;47.33;37.33;;;;;11.82;100.00;98696.41;6276219;20;3621179;-46
2023/10/31 00:27:00;;;;;;;;;39.67;35.00;;;;;11.78;100.00;98690.44;6311291;20;3618996;-45
2023/10/31 00:29:29;;;;;;;;;38.00;34.00;;;;;11.92;100.00;98691.16;6277172;20;2854905;-47
2023/10/31 00:31:58;;;;;;;;;41.00;36.00;;;;;12.10;100.00;98694.16;6278738;20;2741462;-45
2023/10/31 00:34:26;;;;;;;;;43.50;36.00;;;;;12.16;100.00;98690.94;6308197;20;2851288;-46
2023/10/31 00:36:55;;;;;;;;;45.50;36.50;;;;;11.69;100.00;98679.59;6274107;20;2854477;-46
2023/10/31 00:39:25;;;;;;;;;43.67;35.00;;;;;11.21;100.00;98676.25;6278556;20;2855680;-47
2023/10/31 00:41:54;;;;;;;;;49.33;38.00;;;;;11.20;100.00;98674.53;6313631;20;3603432;-46
2023/10/31 00:44:22;;;;;;;;;47.50;38.50;;;;;11.65;100.00;98663.72;6277518;20;2860700;-47
2023/10/31 00:46:52;;;;;;;;;46.33;36.33;;;;;11.49;100.00;98665.97;6276878;20;2861857;-47
2023/10/31 00:49:21;;;;;;;;;41.67;36.00;;;;;11.74;100.00;98662.13;6309819;20;2860799;-46
2023/10/31 00:51:50;;;;;;;;;45.00;36.33;;;;;10.97;100.00;98656.72;6311060;20;3588807;-46
2023/10/31 00:54:19;;;;;;;;;50.50;41.00;;;;;10.93;100.00;98644.53;6276777;20;2847201;-46
2023/10/31 00:56:48;;;;;;;;;49.00;40.50;;;;;11.37;100.00;98649.00;6274237;20;2856685;-46
2023/10/31 00:59:17;;;;;;;;;49.50;41.00;;;;;11.49;100.00;98647.13;6277855;20;2853503;-46
2023/10/31 01:01:46;;;;;;;;;46.00;39.00;;;;;11.62;100.00;98642.47;6277480;20;2867127;-47
2023/10/31 01:04:15;;;;;;;;;45.33;39.00;;;;;11.71;100.00;98639.97;6314263;20;3599379;-46
2023/10/31 01:06:44;;;;;;;;;43.50;37.50;;;;;11.38;100.00;98636.44;6280560;20;2839925;-46
2023/10/31 01:09:13;;;;;;;;;43.50;38.50;;;;;11.32;100.00;98631.53;6283627;20;2858573;-47
2023/10/31 01:11:42;;;;;;;;;37.00;33.33;;;;;11.61;100.00;98627.31;6281444;20;2851329;-47
2023/10/31 01:14:12;;;;;;;;;44.67;37.67;;;;;11.74;100.00;98620.91;6314021;20;3621158;-47
2023/10/31 01:16:41;;;;;;;;;43.00;36.00;;;;;11.26;100.00;98619.44;6314899;20;3596072;-46
2023/10/31 01:19:11;;;;;;;;;39.33;36.00;;;;;11.13;100.00;98608.00;6281084;20;2864968;-46
2023/10/31 01:21:41;;;;;;;;;38.33;34.67;;;;;11.39;100.00;98612.09;6312613;20;2849334;-46
2023/10/31 01:24:10;;;;;;;;;42.00;36.33;;;;;11.74;100.00;98597.56;6313195;20;2868221;-47
2023/10/31 01:26:40;;;;;;;;;38.67;33.33;;;;;11.51;100.00;98601.34;6313472;20;2855715;-46
2023/10/31 01:29:09;;;;;;;;;42.33;34.67;;;;;11.55;100.00;98592.84;6319188;20;3592078;-46
2023/10/31 01:31:41;;;;;;;;;46.67;37.00;;;;;11.49;100.00;98588.00;6282751;20;2877709;-46
2023/10/31 01:34:26;;;;;;;;;42.67;36.00;;;;;11.21;100.00;98584.88;6319545;20;3602401;-46
2023/10/31 01:36:55;;;;;;;;;40.00;35.00;;;;;11.60;100.00;98579.88;6285532;20;3598197;-47
2023/10/31 01:39:25;;;;;;;;;44.33;35.33;;;;;11.51;100.00;98583.38;6283440;20;2866147;-47
2023/10/31 01:41:55;;;;;;;;;40.00;34.33;;;;;11.27;100.00;98583.56;6312768;20;2874553;-46
2023/10/31 01:44:23;;;;;;;;;39.00;34.00;;;;;11.08;100.00;98586.03;6310659;20;2851330;-46
2023/10/31 01:46:52;;;;;;;;;38.50;35.00;;;;;11.28;100.00;98584.41;6281534;20;2850251;-47
2023/10/31 01:49:22;;;;;;;;;43.00;34.67;;;;;11.51;100.00;98583.38;6281461;20;2861911;-46
2023/10/31 01:51:52;;;;;;;;;46.33;36.33;;;;;11.06;100.00;98575.44;6310890;20;3624227;-46
2023/10/31 01:54:21;;;;;;;;;42.00;37.00;;;;;10.90;100.00;98569.56;6313296;20;2853548;-46
2023/10/31 01:56:55;;;;;;;;;41.67;33.33;;;;;10.82;100.00;98564.84;6279602;20;3607552;-46
2023/10/31 01:59:28;;;;;;;;;45.00;35.00;;;;;10.89;100.00;98568.72;6316596;20;3612887;-46
2023/10/31 02:01:58;;;;;;;;;41.00;34.67;;;;;10.89;100.00;98557.13;6276975;20;2866235;-45
2023/10/31 02:04:27;;;;;;;;;44.33;34.33;;;;;10.95;100.00;98546.75;6312758;20;3610806;-46
2023/10/31 02:06:56;;;;;;;;;38.33;33.00;;;;;11.42;100.00;98559.91;6284108;20;3602419;-47
2023/10/31 02:09:27;;;;;;;;;43.00;37.33;;;;;11.34;100.00;98557.03;6282624;20;2862853;-47
2023/10/31 02:11:57;;;;;;;;;10.80;9.20;;;;;10.44;100.00;98551.78;6334669;20;2751352;-46
2023/10/31 02:14:26;;;;;;;;;42.00;37.33;;;;;11.06;100.00;98563.81;6282355;20;2866058;-46
2023/10/31 02:16:55;;;;;;;;;39.00;35.67;;;;;11.40;100.00;98570.81;6312364;20;3593000;-46
2023/10/31 02:19:24;;;;;;;;;36.67;33.67;;;;;11.72;100.00;98558.34;6284786;20;3585161;-46
2023/10/31 02:21:53;;;;;;;;;38.67;34.33;;;;;11.01;100.00;98550.78;6280763;20;2866946;-46
2023/10/31 02:24:22;;;;;;;;;42.00;35.33;;;;;10.86;100.00;98557.38;6315943;20;3590989;-46
2023/10/31 02:26:51;;;;;;;;;39.00;34.67;;;;;11.19;100.00;98549.25;6279907;20;2857568;-46
2023/10/31 02:29:20;;;;;;;;;34.00;30.50;;;;;10.67;100.00;98548.13;6313367;20;2854450;-46
2023/10/31 02:31:50;;;;;;;;;36.67;34.33;;;;;11.10;100.00;98550.00;6280196;20;2860838;-46
2023/10/31 02:34:19;;;;;;;;;40.33;33.00;;;;;11.19;100.00;98545.72;6310996;20;3614851;-46
2023/10/31 02:36:49;;;;;;;;;40.00;35.00;;;;;11.14;100.00;98540.72;6279732;20;3614868;-46
2023/10/31 02:39:18;;;;;;;;;40.67;35.67;;;;;11.39;100.00;98546.75;6320569;20;3597250;-46
2023/10/31 02:41:46;;;;;;;;;38.00;35.00;;;;;10.90;100.00;98540.91;6281316;20;2858618;-46
2023/10/31 02:44:16;;;;;;;;;37.33;33.00;;;;;10.94;100.00;98538.81;6280268;20;2867097;-47
2023/10/31 02:46:46;;;;;;;;;43.33;35.00;;;;;10.92;100.00;98532.69;6310265;20;3598310;-46
2023/10/31 02:49:15;;;;;;;;;40.33;35.00;;;;;10.87;100.00;98521.47;6312771;20;3596256;-46
2023/10/31 02:51:44;;;;;;;;;36.67;33.33;;;;;10.88;100.00;98520.53;6281617;20;2844147;-46
2023/10/31 02:54:13;;;;;;;;;37.00;32.00;;;;;10.87;100.00;98516.13;6312564;20;3594081;-46
2023/10/31 02:56:43;;;;;;;;;40.00;33.00;;;;;11.30;100.00;98523.34;6278889;20;3614884;-45
2023/10/31 02:59:12;;;;;;;;;34.00;32.00;;;;;10.95;100.00;98522.59;6314645;20;3602419;-46
2023/10/31 03:01:40;;;;;;;;;41.33;36.00;;;;;11.10;100.00;98523.13;6285695;20;3591400;-46
2023/10/31 03:04:10;;;;;;;;;43.00;36.33;;;;;11.04;100.00;98525.50;6280184;20;2862998;-45
2023/10/31 03:06:39;;;;;;;;;35.67;31.33;;;;;11.35;100.00;98529.19;6307139;20;3606519;-46
2023/10/31 03:09:08;;;;;;;;;42.00;35.00;;;;;11.59;100.00;98524.44;6282484;20;2843009;-46
2023/10/31 03:11:37;;;;;;;;;42.33;36.33;;;;;11.77;100.00;98527.41;6281463;20;3606603;-46
2023/10/31 03:14:06;;;;;;;;;43.00;36.67;;;;;11.61;100.00;98533.22;6316683;20;3597185;-46
2023/10/31 03:16:36;;;;;;;;;37.50;33.50;;;;;11.19;100.00;98521.53;6276349;20;2856588;-45
2023/10/31 03:19:05;;;;;;;;;38.00;32.33;;;;;11.44;100.00;98525.72;6284355;20;3598278;-47
2023/10/31 03:21:34;;;;;;;;;33.33;30.67;;;;;11.37;100.00;98520.00;6283760;20;3579548;-46
2023/10/31 03:24:03;;;;;;;;;40.33;33.00;;;;;11.63;100.00;98520.47;6284004;20;3616890;-46
2023/10/31 03:26:32;;;;;;;;;34.67;31.33;;;;;11.91;100.00;98517.34;6274514;20;3605548;-47
2023/10/31 03:29:01;;;;;;;;;31.67;28.67;;;;;11.49;100.00;98520.81;6313853;20;3577446;-47
2023/10/31 03:31:31;;;;;;;;;31.33;23.67;;;;;11.73;100.00;98519.72;6276943;20;3615970;-47
2023/10/31 03:34:00;;;;;;;;;39.33;32.33;;;;;11.62;100.00;98518.78;6314066;20;3603378;-45
2023/10/31 03:36:28;;;;;;;;;36.50;31.50;;;;;11.56;100.00;98529.22;6278658;20;2845108;-46
2023/10/31 03:38:57;;;;;;;;;40.00;34.00;;;;;11.94;100.00;98517.91;6279705;20;2840412;-46
2023/10/31 03:41:27;;;;;;;;;42.33;36.00;;;;;11.95;100.00;98535.75;6280152;20;2865025;-46
2023/10/31 03:43:55;;;;;;;;;36.67;33.67;;;;;11.88;100.00;98531.03;6315591;20;3582827;-46
2023/10/31 03:46:24;;;;;;;;;38.00;33.50;;;;;11.90;100.00;98532.63;6275463;20;2856537;-46
2023/10/31 03:48:54;;;;;;;;;44.67;35.33;;;;;12.21;100.00;98535.34;6275600;20;3621083;-46
2023/10/31 03:51:24;;;;;;;;;50.33;40.33;;;;;12.07;100.00;98545.47;6310971;20;2857054;-46
2023/10/31 03:53:52;;;;;;;;;35.00;32.00;;;;;11.92;100.00;98552.16;6312707;20;3591918;-46
2023/10/31 03:56:22;;;;;;;;;39.67;33.67;;;;;12.07;100.00;98544.59;6276604;20;2856709;-45
2023/10/31 03:58:51;;;;;;;;;29.00;28.67;;;;;12.08;100.00;98563.31;6315856;20;3602344;-46
2023/10/31 04:01:20;;;;;;;;;34.67;32.00;;;;;12.22;100.00;98558.59;6279523;20;3596135;-46
2023/10/31 04:03:49;;;;;;;;;34.00;30.67;;;;;12.08;100.00;98563.31;6308066;20;3610791;-47
2023/10/31 04:06:18;;;;;;;;;35.33;30.33;;;;;11.54;100.00;98561.59;6280906;20;3603471;-48
2023/10/31 04:08:49;;;;;;;;;37.75;33.63;;;;;12.18;100.00;98575.97;6303419;20;3604421;-48
2023/10/31 04:11:18;;;;;;;;;32.00;30.00;;;;;12.17;100.00;98585.88;6281735;20;3603427;-47
2023/10/31 04:13:47;;;;;;;;;26.67;25.67;;;;;12.08;100.00;98586.66;6281721;20;3585728;-48
2023/10/31 04:16:16;;;;;;;;;27.33;27.00;;;;;11.89;100.00;98586.53;6278342;20;3573163;-48
2023/10/31 04:18:45;;;;;;;;;32.67;28.67;;;;;11.99;100.00;98580.22;6275605;20;3582545;-47
2023/10/31 04:21:14;;;;;;;;;26.33;26.00;;;;;11.78;100.00;98580.19;6278513;20;3599323;-47
2023/10/31 04:23:43;;;;;;;;;35.67;27.00;;;;;11.72;100.00;98577.19;6312539;20;3607531;-47
2023/10/31 04:26:12;;;;;;;;;29.67;26.00;;;;;11.57;100.00;98576.63;6281227;20;3591938;-47
2023/10/31 04:28:41;;;;;;;;;27.00;25.50;;;;;11.58;100.00;98560.34;6278882;20;2839893;-47
2023/10/31 04:31:10;;;;;;;;;27.00;27.00;;;;;11.46;100.00;98566.75;6279569;20;2844166;-48
2023/10/31 04:33:39;;;;;;;;;26.33;25.33;;;;;11.79;100.00;98562.22;6283123;20;3594066;-47
2023/10/31 04:36:08;;;;;;;;;25.67;24.00;;;;;12.00;100.00;98578.41;6280846;20;3594038;-47
2023/10/31 04:38:40;;;;;;;;;28.50;27.50;;;;;11.94;100.00;98568.16;6280899;20;2831668;-47
2023/10/31 04:41:10;;;;;;;;;36.00;33.33;;;;;11.97;100.00;98578.66;6284794;20;2851584;-48
2023/10/31 04:43:41;;;;;;;;;33.00;31.33;;;;;11.69;100.00;98558.59;6315359;20;3602369;-47
2023/10/31 04:46:10;;;;;;;;;37.33;33.00;;;;;12.00;100.00;98555.03;6286265;20;3597256;-48
2023/10/31 04:48:39;;;;;;;;;34.00;31.33;;;;;11.63;100.00;98530.38;6285933;20;3601341;-46
2023/10/31 04:51:08;;;;;;;;;35.33;32.00;;;;;11.63;100.00;98525.84;6298141;20;3600464;-47
2023/10/31 04:53:36;;;;;;;;;27.00;27.00;;;;;11.71;100.00;98548.56;6287970;20;3596149;-48
2023/10/31 04:56:14;;;;;;;;;36.00;33.67;;;;;11.43;100.00;98527.56;6281572;20;3597221;-45
2023/10/31 04:58:45;;;;;;;;;31.33;28.33;;;;;11.58;100.00;98505.72;6313584;20;3596198;-46
2023/10/31 05:01:15;;;;;;;;;29.33;28.00;;;;;11.48;100.00;98494.91;6316829;20;3586739;-46
2023/10/31 05:03:44;;;;;;;;;34.00;31.33;;;;;11.81;100.00;98501.09;6283488;20;3598293;-46
2023/10/31 05:06:22;;;;;;;;;37.00;33.00;;;;;11.96;100.00;98507.88;6281036;20;3588860;-47
2023/10/31 05:08:51;;;;;;;;;24.00;22.00;;;;;11.93;100.00;98500.06;6319674;20;3575396;-47
2023/10/31 05:11:20;;;;;;;;;39.33;34.67;;;;;11.83;100.00;98493.75;6318018;20;3603491;-48
2023/10/31 05:13:50;;;;;;;;;39.00;33.00;;;;;11.84;100.00;98484.69;6285639;20;2760851;-46
2023/10/31 05:16:19;;;;;;;;;38.00;33.33;;;;;11.70;100.00;98485.03;6284719;20;3608686;-47
2023/10/31 05:18:47;;;;;;;;;35.33;31.33;;;;;12.05;100.00;98474.78;6286757;20;3592080;-47
2023/10/31 05:21:20;;;;;;;;;36.00;33.00;;;;;11.82;100.00;98476.75;6282817;20;3593088;-46
2023/10/31 05:23:49;;;;;;;;;32.67;30.00;;;;;11.63;100.00;98482.00;6317529;20;3592466;-48
2023/10/31 05:26:18;;;;;;;;;35.67;30.00;;;;;11.85;100.00;98472.97;6284101;20;3598194;-47
2023/10/31 05:28:47;;;;;;;;;28.33;28.00;;;;;12.07;100.00;98478.19;6283592;20;3573271;-47
2023/10/31 05:31:19;;;;;;;;;28.67;27.33;;;;;11.81;100.00;98466.13;6319260;20;3584627;-47
2023/10/31 05:33:48;;;;;;;;;30.33;29.33;;;;;11.70;100.00;98466.22;6280634;20;3584653;-48
2023/10/31 05:36:25;;;;;;;;;30.33;27.00;;;;;11.77;100.00;98461.97;6283066;20;3595038;-48
2023/10/31 05:38:54;;;;;;;;;32.67;30.67;;;;;12.19;100.00;98462.84;6285304;20;3582648;-47
2023/10/31 05:41:23;;;;;;;;;28.00;27.00;;;;;12.20;100.00;98471.75;6285177;20;3581462;-47
2023/10/31 05:43:51;;;;;;;;;27.00;25.67;;;;;12.13;100.00;98467.88;6284146;20;3587858;-47
2023/10/31 05:46:20;;;;;;;;;30.00;26.00;;;;;12.07;100.00;98475.50;6285294;20;3576331;-48
2023/10/31 05:48:50;;;;;;;;;29.33;27.00;;;;;12.14;100.00;98470.47;6283827;20;3580537;-47
2023/10/31 05:51:20;;;;;;;;;28.67;27.67;;;;;12.20;100.00;98490.59;6282972;20;2839924;-48
2023/10/31 05:53:49;;;;;;;;;25.00;23.00;;;;;12.25;100.00;98505.34;6316072;20;3594090;-48
2023/10/31 05:56:18;;;;;;;;;26.67;26.00;;;;;12.19;100.00;98516.66;6283892;20;3578374;-48
2023/10/31 05:58:47;;;;;;;;;23.33;22.00;;;;;12.50;100.00;98520.16;6283329;20;3600227;-47
2023/10/31 06:01:16;;;;;;;;;27.67;26.67;;;;;12.36;100.00;98531.31;6282985;20;3585698;-47
2023/10/31 06:03:45;;;;;;;;;23.67;23.67;;;;;12.64;100.00;98537.81;6318938;20;3583593;-39
2023/10/31 06:06:15;;;;;;;;;23.67;23.00;;;;;12.71;100.00;98552.44;6282545;20;2858816;-38
2023/10/31 06:08:44;;;;;;;;;28.67;27.00;;;;;12.84;100.00;98557.59;6318798;20;3578514;-37
2023/10/31 06:11:13;;;;;;;;;26.00;25.33;;;;;12.64;100.00;98564.75;6285116;20;3578397;-38
2023/10/31 06:13:42;;;;;;;;;33.33;28.33;;;;;12.62;100.00;98563.19;6283726;20;3582563;-38
2023/10/31 06:16:10;;;;;;;;;30.67;30.00;;;;;12.03;100.00;98567.38;6283569;20;3588818;-39
2023/10/31 06:18:42;;;;;;;;;33.33;29.67;;;;;11.76;100.00;98562.47;6283826;20;3597304;-47
2023/10/31 06:21:11;;;;;;;;;33.67;30.33;;;;;11.73;100.00;98560.06;6287229;20;3599262;-47
2023/10/31 06:23:40;;;;;;;;;33.67;30.00;;;;;11.74;100.00;98556.38;6286487;20;3602398;-47
2023/10/31 06:26:08;;;;;;;;;27.00;26.00;;;;;11.74;100.00;98551.00;6285088;20;3585889;-48
2023/10/31 06:28:39;;;;;;;;;25.33;22.00;;;;;11.79;100.00;98546.91;6279327;20;2852419;-45
2023/10/31 06:31:20;;;;;;;;;27.33;26.00;;;;;11.74;100.00;98537.53;6316913;20;3583661;-46
2023/10/31 06:33:49;;;;;;;;;24.67;23.00;;;;;11.73;100.00;98525.94;6284813;20;3582589;-46
2023/10/31 06:36:17;;;;;;;;;27.33;26.00;;;;;12.05;100.00;98523.19;6281449;20;3602330;-47
2023/10/31 06:38:46;;;;;;;;;23.67;23.67;;;;;12.16;100.00;98516.03;6285014;20;3587741;-46
2023/10/31 06:41:14;;;;;;;;;9.67;9.00;;;;;12.23;100.00;98518.06;6292489;20;1815894;-46
2023/10/31 06:43:43;;;;;;;;;24.00;23.00;;;;;12.24;100.00;98510.84;6283707;20;3590819;-46
2023/10/31 06:46:14;;;;;;;;;23.00;21.00;;;;;12.64;100.00;98515.44;6281019;20;2841988;-45
2023/10/31 06:48:43;;;;;;;;;29.00;29.00;;;;;12.61;100.00;98507.59;6280841;20;2842184;-45
2023/10/31 06:51:12;;;;;;;;;23.67;23.67;;;;;12.64;100.00;98507.34;6285251;20;3602766;-46
2023/10/31 06:53:41;;;;;;;;;27.33;23.00;;;;;12.81;100.00;98501.28;6286736;20;3600302;-46
2023/10/31 06:56:09;;;;;;;;;22.67;20.00;;;;;12.72;100.00;98496.75;6284057;20;3572178;-47
2023/10/31 06:58:39;;;;;;;;;28.33;25.00;;;;;12.60;100.00;98492.44;6281370;20;3592998;-46
2023/10/31 07:01:09;;;;;;;;;46.33;36.00;;;;;12.84;100.00;98495.63;6312323;20;3630580;-47
2023/10/31 07:03:38;;;;;;;;;40.33;33.33;;;;;13.20;100.00;98487.91;6282329;20;2870495;-48
2023/10/31 07:06:08;;;;;;;;;63.67;51.00;;;;;13.09;100.00;98477.25;6310874;20;3616967;-46
2023/10/31 07:08:36;;;;;;;;;86.00;80.50;;;;;13.07;100.00;98473.84;6306298;20;1926316;-46
2023/10/31 07:11:06;;;;;;;;;37.33;33.00;;;;;12.66;100.00;98481.13;6281961;20;2860963;-46
2023/10/31 07:13:35;;;;;;;;;61.00;47.67;;;;;12.82;100.00;98477.91;6317041;20;3624224;-47
2023/10/31 07:16:05;;;;;;;;;35.33;31.00;;;;;12.80;100.00;98478.06;6284590;20;3589837;-47
2023/10/31 07:18:34;;;;;;;;;27.33;23.33;;;;;12.54;100.00;98474.16;6282202;20;2846158;-47
2023/10/31 07:21:04;;;;;;;;;35.00;30.00;;;;;12.73;100.00;98475.03;6312482;20;3597096;-47
2023/10/31 07:23:34;;;;;;;;;41.33;34.00;;;;;12.90;100.00;98473.53;6281980;20;3620054;-47
2023/10/31 07:26:06;;;;;;;;;54.00;39.00;;;;;13.47;100.00;98472.88;6311810;20;4386799;-47
2023/10/31 07:28:35;;;;;;;;;25.00;22.33;;;;;13.21;100.00;98470.72;6315667;20;3590904;-47
2023/10/31 07:31:05;;;;;;;;;73.75;52.50;;;;;13.72;100.00;98475.00;6285274;20;4397097;-48
2023/10/31 07:33:34;;;;;;;;;36.25;28.25;;;;;13.59;100.00;98474.44;6315642;20;3620062;-47
2023/10/31 07:36:04;;;;;;;;;22.33;20.33;;;;;13.76;100.00;98468.31;6314954;20;3562969;-47
2023/10/31 07:38:35;;;;;;;;;48.33;36.00;;;;;13.60;100.00;98462.66;6312359;20;3617184;-47
2023/10/31 07:41:05;;;;;;;;;63.75;47.25;;;;;13.60;100.00;98457.25;6315835;20;4380577;-47
2023/10/31 07:43:34;;;;;;;;;59.25;41.75;;;;;14.07;100.00;98465.41;6307923;20;4409652;-47
2023/10/31 07:46:07;;;;;;;;;50.50;36.00;;;;;13.92;100.00;98459.59;6312504;20;3636990;-47
2023/10/31 07:48:37;;;;;;;;;75.50;53.50;;;;;13.94;100.00;98462.19;6314923;20;4402715;-47
2023/10/31 07:51:06;;;;;;;;;38.00;29.67;;;;;14.26;100.00;98464.47;6314729;20;3619013;-49
2023/10/31 07:53:35;;;;;;;;;52.67;39.00;;;;;14.19;100.00;98466.94;6279645;20;3618014;-47
2023/10/31 07:56:04;;;;;;;;;26.33;21.00;;;;;14.14;100.00;98463.81;6314803;20;3588878;-47
2023/10/31 07:58:34;;;;;;;;;44.50;29.75;;;;;14.22;100.00;98461.22;6287531;20;4381598;-46
2023/10/31 08:01:03;;;;;;;;;21.50;19.00;;;;;14.48;100.00;98460.53;6311474;20;2830485;-46
2023/10/31 08:03:32;;;;;;;;;24.33;22.67;;;;;14.50;100.00;98458.53;6284362;20;3569075;-47
2023/10/31 08:06:02;;;;;;;;;36.33;33.33;;;;;14.61;100.00;98461.09;6279456;20;2862939;-47
2023/10/31 08:08:31;;;;;;;;;32.25;29.00;;;;;15.10;100.00;98456.22;6314077;20;3610728;-47
2023/10/31 08:11:00;;;;;;;;;37.67;33.67;;;;;15.43;100.00;98452.97;6316467;20;3600780;-48
2023/10/31 08:13:30;;;;;;;;;17.00;15.00;;;;;15.54;100.00;98448.19;6286620;20;2813859;-47
2023/10/31 08:15:59;;;;;;;;;14.67;14.67;;;;;15.85;100.00;98447.78;6287535;20;3531553;-47
2023/10/31 08:18:27;;;;;;;;;16.00;14.00;;;;;15.73;100.00;98451.75;6317024;20;3537772;-48
2023/10/31 08:20:56;;;;;;;;;18.00;18.00;;;;;15.41;100.00;98461.25;6286432;20;2839895;-46
2023/10/31 08:23:26;;;;;;;;;18.50;15.00;;;;;15.54;100.00;98456.28;6285613;20;2500325;-47
2023/10/31 08:25:55;;;;;;;;;17.00;16.00;;;;;15.67;100.00;98457.75;6287029;20;2817989;-48
2023/10/31 08:28:24;;;;;;;;;16.00;15.00;;;;;15.55;100.00;98455.28;6289216;20;2815010;-47
2023/10/31 08:30:52;;;;;;;;;19.00;17.50;;;;;15.67;100.00;98452.34;6287979;20;2483630;-48
2023/10/31 08:33:20;;;;;;;;;14.50;14.50;;;;;15.92;97.31;98451.53;6291223;20;2810738;-48
2023/10/31 08:35:48;;;;;;;;;13.50;13.50;;;;;16.46;97.22;98445.94;6287423;20;2491968;-47
2023/10/31 08:38:17;;;;;;;;;17.50;17.50;;;;;16.55;95.07;98441.38;6288823;20;2832574;-47
2023/10/31 08:40:58;;;;;;;;;12.33;11.67;;;;;16.78;91.75;98441.66;6288520;20;3532573;-47
2023/10/31 08:43:26;;;;;;;;;11.50;10.00;;;;;16.83;92.05;98445.59;6292213;20;2786742;-45
2023/10/31 08:45:54;;;;;;;;;12.00;11.00;;;;;17.20;91.25;98438.03;6292973;20;2794037;-46
2023/10/31 08:48:23;;;;;;;;;11.33;10.33;;;;;17.19;89.49;98434.47;6287002;20;3520079;-46
2023/10/31 08:50:51;;;;;;;;;13.00;11.00;;;;;17.20;88.00;98438.03;6318483;20;2796232;-46
2023/10/31 08:53:20;;;;;;;;;14.33;12.00;;;;;17.45;87.96;98420.75;6287420;20;3507582;-47
2023/10/31 08:55:48;;;;;;;;;16.33;13.33;;;;;18.47;86.70;98429.25;6316677;20;3531544;-47
2023/10/31 08:58:18;;;;;;;;;8.33;8.33;;;;;18.39;84.58;98426.56;6316221;20;3465892;-47
2023/10/31 09:00:46;;;;;;;;;9.00;8.00;;;;;18.13;85.17;98427.66;6319495;20;2750304;-46
2023/10/31 09:03:14;;;;;;;;;10.00;10.00;;;;;18.01;83.95;98407.34;6287897;20;2783679;-47
2023/10/31 09:05:44;;;;;;;;;8.50;8.50;;;;;18.30;84.14;98416.75;6320298;20;2741111;-47
2023/10/31 09:08:12;;;;;;;;;14.33;12.33;;;;;18.47;83.28;98403.94;6288568;20;3528419;-46
2023/10/31 09:10:42;;;;;;;;;57.33;44.33;;;;;17.72;81.06;98397.84;6319529;20;3628519;-47
2023/10/31 09:13:11;;;;;;;;;25.33;23.67;;;;;17.56;82.30;98395.13;6283885;20;3578469;-47
2023/10/31 09:15:41;;;;;;;;;59.50;45.25;;;;;17.77;82.73;98395.47;6289863;20;4382757;-46
2023/10/31 09:18:10;;;;;;;;;33.67;31.33;;;;;18.28;82.21;98391.63;6318460;20;3606596;-47
2023/10/31 09:20:39;;;;;;;;;69.67;57.33;;;;;18.26;80.36;98390.97;6288811;20;3606627;-46
2023/10/31 09:23:11;;;;;;;;;141.11;117.33;;;;;18.23;80.64;98384.00;6278849;20;3735662;-47
2023/10/31 09:25:39;;;;;;;;;376.50;315.50;;;;;18.09;78.77;98377.44;6275882;20;1963029;-47
2023/10/31 09:28:08;;;;;;;;;444.50;347.25;;;;;18.21;79.80;98370.56;6256441;20;2552314;-47
2023/10/31 09:30:36;;;;;;;;;216.00;185.00;;;;;18.15;82.11;98365.84;6276399;20;1939953;-47
2023/10/31 09:33:08;;;;;;;;;118.67;107.78;;;;;18.55;79.44;98363.97;6279629;20;3721119;-47
2023/10/31 09:35:38;;;;;;;;;71.67;53.67;;;;;18.81;78.54;98360.13;6284339;20;3629603;-47
2023/10/31 09:38:09;;;;;;;;;103.00;90.13;;;;;18.83;76.14;98358.09;6312417;20;3694008;-47
2023/10/31 09:40:39;;;;;;;;;56.67;45.00;;;;;18.84;74.79;98348.88;6287586;20;3614813;-47
2023/10/31 09:43:09;;;;;;;;;61.00;46.50;;;;;19.03;76.30;98358.44;6286225;20;4399175;-47
2023/10/31 09:45:37;;;;;;;;;18.00;16.50;;;;;18.96;73.79;98352.91;6315960;20;2483582;-47
2023/10/31 09:48:07;;;;;;;;;79.33;67.67;;;;;18.91;73.13;98352.59;6284898;20;3676291;-47
2023/10/31 09:50:38;;;;;;;;;38.00;30.75;;;;;19.03;72.43;98348.41;6322579;20;3612861;-48
2023/10/31 09:53:10;;;;;;;;;6.20;5.60;;;;;19.24;67.91;98334.13;6340578;20;2744023;-47
2023/10/31 09:55:39;;;;;;;;;9.00;9.00;;;;;19.46;67.06;98335.13;6321197;20;2752342;-47
2023/10/31 09:58:08;;;;;;;;;17.33;13.67;;;;;19.40;70.44;98327.69;6315770;20;3533559;-47
2023/10/31 10:00:38;;;;;;;;;16.00;14.00;;;;;19.88;68.35;98327.41;6283500;20;2801346;-47
2023/10/31 10:03:10;;;;;;;;;43.67;33.33;;;;;19.98;67.64;98332.59;6288768;20;3605610;-47
2023/10/31 10:05:40;;;;;;;;;22.00;18.67;;;;;20.20;66.06;98318.03;6284355;20;3576317;-47
2023/10/31 10:08:10;;;;;;;;;38.67;28.67;;;;;20.20;65.50;98318.03;6287573;20;3607802;-48
2023/10/31 10:10:39;;;;;;;;;17.00;14.67;;;;;19.99;62.42;98305.16;6283479;20;3534103;-48
2023/10/31 10:13:08;;;;;;;;;13.67;11.67;;;;;20.44;59.26;98303.22;6322378;20;2794124;-48
2023/10/31 10:15:49;;;;;;;;;8.00;7.00;;;;;20.25;59.20;98311.97;6315267;20;2748725;-48
2023/10/31 10:18:37;;;;;;;;;32.00;22.75;;;;;20.17;57.47;98305.63;6316649;20;3607637;-48
2023/10/31 10:21:09;;;;;;;;;48.67;35.00;;;;;20.36;57.53;98312.34;6316135;20;3613866;-48
2023/10/31 10:23:37;;;;;;;;;11.00;9.33;;;;;20.26;57.63;98303.63;6316492;20;3502450;-48
2023/10/31 10:26:06;;;;;;;;;4.67;4.67;;;;;20.29;56.53;98297.78;6318674;20;2753408;-48
2023/10/31 10:28:34;;;;;;;;;5.00;5.00;;;;;20.02;55.55;98293.88;6326722;20;2745116;-48
2023/10/31 10:31:03;;;;;;;;;5.00;5.00;;;;;19.80;54.68;98279.34;6314774;20;2748210;-48
2023/10/31 10:33:34;;;;;;;;;3.80;3.80;;;;;19.79;54.33;98272.19;6342390;20;2746152;-48
2023/10/31 10:36:05;;;;;;;;;6.40;6.00;;;;;20.03;54.41;98267.47;6309232;20;2737925;-48
2023/10/31 10:38:36;;;;;;;;;5.20;3.80;;;;;20.38;54.59;98265.81;6339087;20;2748197;-48
2023/10/31 10:41:08;;;;;;;;;6.00;6.00;;;;;20.36;52.86;98246.91;6283017;20;2738831;-48
2023/10/31 10:43:39;;;;;;;;;4.40;4.40;;;;;20.33;52.62;98250.03;6340291;20;2748159;-48
2023/10/31 10:46:10;;;;;;;;;14.50;14.50;;;;;20.27;53.68;98249.94;6280338;20;2810658;-48
2023/10/31 10:48:47;;;;;;;;;26.00;19.67;;;;;19.98;56.39;98245.41;6282897;20;3580512;-48
2023/10/31 10:51:29;;;;;;;;;8.67;8.67;;;;;19.71;55.24;98236.88;6310823;20;3459722;-48
2023/10/31 10:54:37;;;;;;;;;8.80;6.40;;;;;19.87;58.80;98227.66;6340573;20;2745056;-48
2023/10/31 10:57:38;;;;;;;;;5.67;5.67;;;;;19.48;56.87;98216.03;6280406;20;2741948;-48
2023/10/31 11:00:13;;;;;;;;;4.80;4.80;;;;;19.58;54.29;98215.72;6342407;20;2752424;-48
2023/10/31 11:02:45;;;;;;;;;17.67;17.33;;;;;19.55;54.33;98212.53;6283270;20;2831685;-48
2023/10/31 11:05:14;;;;;;;;;15.33;14.33;;;;;19.91;54.71;98197.13;6317469;20;3531535;-48
2023/10/31 11:07:46;;;;;;;;;36.75;30.00;;;;;19.94;54.10;98182.28;6313870;20;3613926;-48
2023/10/31 11:10:15;;;;;;;;;36.67;28.00;;;;;19.94;55.00;98177.69;6315623;20;3613815;-48